sensor_id;sensor_type;location;lat;lon;timestamp;pressure;altitude;pressure_sealevel;temperature;humidity
17855;BME280;9053;53.358;6.382;2023-04-01T00:01:45;99142.09;;;11.12;100.00
17855;BME280;9053;53.358;6.382;2023-04-01T00:04:15;99142.94;;;11.11;100.00
17855;BME280;9053;53.358;6.382;2023-04-01T00:06:45;99142.09;;;11.10;100.00
17855;BME280;9053;53.358;6.382;2023-04-01T00:09:15;99142.97;;;11.09;100.00
17855;BME280;9053;53.358;6.382;2023-04-01T00:11:45;99139.44;;;11.07;100.00
17855;BME280;9053;53.358;6.382;2023-04-01T00:14:15;99138.56;;;11.07;100.00
17855;BME280;9053;53.358;6.382;2023-04-01T00:16:48;99141.19;;;11.07;100.00
17855;BME280;9053;53.358;6.382;2023-04-01T00:19:19;99142.06;;;11.07;100.00
17855;BME280;9053;53.358;6.382;2023-04-01T00:21:49;99139.44;;;11.05;100.00
17855;BME280;9053;53.358;6.382;2023-04-01T00:24:19;99143.84;;;11.07;100.00
17855;BME280;9053;53.358;6.382;2023-04-01T00:26:48;99149.94;;;11.05;100.00
17855;BME280;9053;53.358;6.382;2023-04-01T00:29:18;99150.81;;;11.06;100.00
17855;BME280;9053;53.358;6.382;2023-04-01T00:31:51;99146.44;;;11.05;100.00
17855;BME280;9053;53.358;6.382;2023-04-01T00:34:21;99143.78;;;11.03;100.00
17855;BME280;9053;53.358;6.382;2023-04-01T00:36:50;99139.41;;;11.01;100.00
17855;BME280;9053;53.358;6.382;2023-04-01T00:39:21;99147.31;;;11.02;100.00
17855;BME280;9053;53.358;6.382;2023-04-01T00:41:51;99142.91;;;11.00;100.00
17855;BME280;9053;53.358;6.382;2023-04-01T00:44:23;99149.94;;;10.99;100.00
17855;BME280;9053;53.358;6.382;2023-04-01T00:46:56;99143.78;;;10.99;100.00
17855;BME280;9053;53.358;6.382;2023-04-01T00:49:29;99149.91;;;10.98;100.00
17855;BME280;9053;53.358;6.382;2023-04-01T00:52:02;99149.91;;;10.98;100.00
17855;BME280;9053;53.358;6.382;2023-04-01T00:54:33;99149.03;;;10.97;100.00
17855;BME280;9053;53.358;6.382;2023-04-01T00:57:05;99149.03;;;10.97;100.00
17855;BME280;9053;53.358;6.382;2023-04-01T00:59:41;99149.00;;;10.96;100.00
17855;BME280;9053;53.358;6.382;2023-04-01T01:02:16;99151.66;;;10.96;100.00
17855;BME280;9053;53.358;6.382;2023-04-01T01:04:49;99139.38;;;10.95;100.00
17855;BME280;9053;53.358;6.382;2023-04-01T01:07:24;99145.53;;;10.94;100.00
17855;BME280;9053;53.358;6.382;2023-04-01T01:10:02;99163.03;;;10.93;100.00
17855;BME280;9053;53.358;6.382;2023-04-01T01:12:39;99149.03;;;10.91;100.00
17855;BME280;9053;53.358;6.382;2023-04-01T01:15:16;99156.00;;;10.91;100.00
17855;BME280;9053;53.358;6.382;2023-04-01T01:17:57;99163.94;;;10.94;100.00
17855;BME280;9053;53.358;6.382;2023-04-01T01:20:40;99153.38;;;10.89;100.00
17855;BME280;9053;53.358;6.382;2023-04-01T01:26:46;99166.53;;;10.89;100.00
17855;BME280;9053;53.358;6.382;2023-04-01T01:29:40;99163.03;;;10.89;100.00
17855;BME280;9053;53.358;6.382;2023-04-01T01:32:20;99160.38;;;10.87;100.00
17855;BME280;9053;53.358;6.382;2023-04-01T01:35:07;99168.25;;;10.86;100.00
17855;BME280;9053;53.358;6.382;2023-04-01T01:37:41;99163.00;;;10.86;100.00
17855;BME280;9053;53.358;6.382;2023-04-01T01:40:15;99174.38;;;10.81;100.00
17855;BME280;9053;53.358;6.382;2023-04-01T01:42:47;99168.25;;;10.81;100.00
17855;BME280;9053;53.358;6.382;2023-04-01T01:45:20;99171.75;;;10.81;100.00
17855;BME280;9053;53.358;6.382;2023-04-01T01:47:51;99162.09;;;10.80;100.00
17855;BME280;9053;53.358;6.382;2023-04-01T01:50:25;99170.84;;;10.79;100.00
17855;BME280;9053;53.358;6.382;2023-04-01T01:53:03;99174.34;;;10.78;100.00
17855;BME280;9053;53.358;6.382;2023-04-01T01:55:39;99175.19;;;10.76;100.00
17855;BME280;9053;53.358;6.382;2023-04-01T01:58:13;99175.19;;;10.76;100.00
17855;BME280;9053;53.358;6.382;2023-04-01T02:00:49;99176.97;;;10.74;100.00
17855;BME280;9053;53.358;6.382;2023-04-01T02:03:21;99183.06;;;10.73;100.00
17855;BME280;9053;53.358;6.382;2023-04-01T02:05:56;99182.19;;;10.71;100.00
17855;BME280;9053;53.358;6.382;2023-04-01T02:08:31;99179.53;;;10.71;100.00
17855;BME280;9053;53.358;6.382;2023-04-01T02:11:06;99183.91;;;10.67;100.00
17855;BME280;9053;53.358;6.382;2023-04-01T02:13:40;99182.16;;;10.65;100.00
17855;BME280;9053;53.358;6.382;2023-04-01T02:16:16;99187.41;;;10.65;100.00
17855;BME280;9053;53.358;6.382;2023-04-01T02:18:49;99192.66;;;10.65;100.00
17855;BME280;9053;53.358;6.382;2023-04-01T02:21:27;99191.78;;;10.64;100.00
17855;BME280;9053;53.358;6.382;2023-04-01T02:23:59;99196.16;;;10.64;100.00
17855;BME280;9053;53.358;6.382;2023-04-01T02:26:30;99197.91;;;10.65;100.00
17855;BME280;9053;53.358;6.382;2023-04-01T02:29:03;99196.19;;;10.67;100.00
17855;BME280;9053;53.358;6.382;2023-04-01T02:31:35;99193.56;;;10.68;100.00
17855;BME280;9053;53.358;6.382;2023-04-01T02:34:05;99204.97;;;10.70;100.00
17855;BME280;9053;53.358;6.382;2023-04-01T02:36:38;99207.59;;;10.70;100.00
17855;BME280;9053;53.358;6.382;2023-04-01T02:39:09;99211.13;;;10.72;100.00
17855;BME280;9053;53.358;6.382;2023-04-01T02:41:39;99209.38;;;10.74;100.00
17855;BME280;9053;53.358;6.382;2023-04-01T02:44:10;99212.00;;;10.76;100.00
17855;BME280;9053;53.358;6.382;2023-04-01T02:46:40;99210.28;;;10.76;100.00
17855;BME280;9053;53.358;6.382;2023-04-01T02:49:11;99212.03;;;10.77;100.00
17855;BME280;9053;53.358;6.382;2023-04-01T02:51:43;99214.66;;;10.77;100.00
17855;BME280;9053;53.358;6.382;2023-04-01T02:54:13;99223.41;;;10.78;100.00
17855;BME280;9053;53.358;6.382;2023-04-01T02:56:45;99222.53;;;10.77;100.00
17855;BME280;9053;53.358;6.382;2023-04-01T02:59:16;99223.44;;;10.76;100.00
17855;BME280;9053;53.358;6.382;2023-04-01T03:01:46;99228.69;;;10.76;100.00
17855;BME280;9053;53.358;6.382;2023-04-01T03:04:16;99234.78;;;10.75;100.00
17855;BME280;9053;53.358;6.382;2023-04-01T03:06:50;99230.41;;;10.74;100.00
17855;BME280;9053;53.358;6.382;2023-04-01T03:09:20;99235.69;;;10.74;100.00
17855;BME280;9053;53.358;6.382;2023-04-01T03:11:50;99239.16;;;10.73;100.00
17855;BME280;9053;53.358;6.382;2023-04-01T03:14:20;99229.50;;;10.71;100.00
17855;BME280;9053;53.358;6.382;2023-04-01T03:16:50;99240.91;;;10.70;100.00
17855;BME280;9053;53.358;6.382;2023-04-01T03:19:20;99241.78;;;10.70;100.00
17855;BME280;9053;53.358;6.382;2023-04-01T03:21:52;99238.28;;;10.70;100.00
17855;BME280;9053;53.358;6.382;2023-04-01T03:24:22;99241.78;;;10.69;100.00
17855;BME280;9053;53.358;6.382;2023-04-01T03:26:52;99242.66;;;10.69;100.00
17855;BME280;9053;53.358;6.382;2023-04-01T03:29:22;99247.88;;;10.66;100.00
17855;BME280;9053;53.358;6.382;2023-04-01T03:31:52;99252.28;;;10.67;100.00
17855;BME280;9053;53.358;6.382;2023-04-01T03:34:24;99258.41;;;10.68;100.00
17855;BME280;9053;53.358;6.382;2023-04-01T03:36:57;99254.91;;;10.67;100.00
17855;BME280;9053;53.358;6.382;2023-04-01T03:39:28;99263.66;;;10.66;100.00
17855;BME280;9053;53.358;6.382;2023-04-01T03:41:59;99260.16;;;10.67;100.00
17855;BME280;9053;53.358;6.382;2023-04-01T03:44:30;99260.16;;;10.67;100.00
17855;BME280;9053;53.358;6.382;2023-04-01T03:47:00;99258.41;;;10.68;100.00
17855;BME280;9053;53.358;6.382;2023-04-01T03:49:30;99269.78;;;10.67;100.00
17855;BME280;9053;53.358;6.382;2023-04-01T03:52:02;99272.44;;;10.67;100.00
17855;BME280;9053;53.358;6.382;2023-04-01T03:54:33;99266.28;;;10.66;100.00
17855;BME280;9053;53.358;6.382;2023-04-01T03:57:05;99270.66;;;10.67;100.00
17855;BME280;9053;53.358;6.382;2023-04-01T03:59:36;99275.03;;;10.65;100.00
17855;BME280;9053;53.358;6.382;2023-04-01T04:02:05;99276.78;;;10.65;100.00
17855;BME280;9053;53.358;6.382;2023-04-01T04:04:35;99279.44;;;10.66;100.00
17855;BME280;9053;53.358;6.382;2023-04-01T04:07:08;99280.28;;;10.65;100.00
17855;BME280;9053;53.358;6.382;2023-04-01T04:09:38;99283.78;;;10.64;100.00
17855;BME280;9053;53.358;6.382;2023-04-01T04:12:08;99286.41;;;10.63;100.00
17855;BME280;9053;53.358;6.382;2023-04-01T04:14:38;99286.41;;;10.61;100.00
17855;BME280;9053;53.358;6.382;2023-04-01T04:17:09;99292.53;;;10.61;100.00
17855;BME280;9053;53.358;6.382;2023-04-01T04:19:43;99296.03;;;10.59;100.00
17855;BME280;9053;53.358;6.382;2023-04-01T04:22:15;99291.66;;;10.61;100.00
17855;BME280;9053;53.358;6.382;2023-04-01T04:24:49;99297.78;;;10.60;100.00
17855;BME280;9053;53.358;6.382;2023-04-01T04:27:19;99303.91;;;10.59;100.00
17855;BME280;9053;53.358;6.382;2023-04-01T04:29:49;99302.13;;;10.58;100.00
17855;BME280;9053;53.358;6.382;2023-04-01T04:32:19;99302.97;;;10.52;100.00
17855;BME280;9053;53.358;6.382;2023-04-01T04:34:49;99305.59;;;10.52;100.00
17855;BME280;9053;53.358;6.382;2023-04-01T04:37:21;99309.09;;;10.53;100.00
17855;BME280;9053;53.358;6.382;2023-04-01T04:39:52;99314.34;;;10.51;100.00
17855;BME280;9053;53.358;6.382;2023-04-01T04:42:22;99316.97;;;10.51;100.00
17855;BME280;9053;53.358;6.382;2023-04-01T04:44:55;99319.56;;;10.50;100.00
17855;BME280;9053;53.358;6.382;2023-04-01T04:47:25;99324.84;;;10.50;100.00
17855;BME280;9053;53.358;6.382;2023-04-01T04:49:55;99328.34;;;10.49;100.00
17855;BME280;9053;53.358;6.382;2023-04-01T04:52:27;99334.44;;;10.46;100.00
17855;BME280;9053;53.358;6.382;2023-04-01T04:54:57;99330.91;;;10.44;100.00
17855;BME280;9053;53.358;6.382;2023-04-01T04:57:28;99337.88;;;10.40;100.00
17855;BME280;9053;53.358;6.382;2023-04-01T04:59:58;99340.50;;;10.40;100.00
17855;BME280;9053;53.358;6.382;2023-04-01T05:02:28;99340.50;;;10.40;100.00
17855;BME280;9053;53.358;6.382;2023-04-01T05:05:00;99349.28;;;10.41;100.00
17855;BME280;9053;53.358;6.382;2023-04-01T05:07:33;99352.78;;;10.43;100.00
17855;BME280;9053;53.358;6.382;2023-04-01T05:10:04;99351.00;;;10.40;100.00
17855;BME280;9053;53.358;6.382;2023-04-01T05:12:34;99356.25;;;10.37;100.00
17855;BME280;9053;53.358;6.382;2023-04-01T05:15:06;99352.72;;;10.35;100.00
17855;BME280;9053;53.358;6.382;2023-04-01T05:17:37;99358.91;;;10.39;100.00
17855;BME280;9053;53.358;6.382;2023-04-01T05:20:07;99361.53;;;10.39;100.00
17855;BME280;9053;53.358;6.382;2023-04-01T05:22:40;99365.06;;;10.41;100.00
17855;BME280;9053;53.358;6.382;2023-04-01T05:25:10;99372.91;;;10.39;100.00
17855;BME280;9053;53.358;6.382;2023-04-01T05:27:39;99372.03;;;10.40;100.00
17855;BME280;9053;53.358;6.382;2023-04-01T05:30:11;99371.09;;;10.35;100.00
17855;BME280;9053;53.358;6.382;2023-04-01T05:32:41;99379.84;;;10.33;100.00
17855;BME280;9053;53.358;6.382;2023-04-01T05:35:11;99383.34;;;10.32;100.00
17855;BME280;9053;53.358;6.382;2023-04-01T05:37:43;99386.88;;;10.34;100.00
17855;BME280;9053;53.358;6.382;2023-04-01T05:40:14;99389.50;;;10.35;100.00
17855;BME280;9053;53.358;6.382;2023-04-01T05:42:43;99388.66;;;10.38;100.00
17855;BME280;9053;53.358;6.382;2023-04-01T05:45:13;99393.88;;;10.35;100.00
17855;BME280;9053;53.358;6.382;2023-04-01T05:47:44;99393.88;;;10.35;100.00
17855;BME280;9053;53.358;6.382;2023-04-01T05:50:14;99399.97;;;10.32;100.00
17855;BME280;9053;53.358;6.382;2023-04-01T05:52:47;99395.63;;;10.34;100.00
17855;BME280;9053;53.358;6.382;2023-04-01T05:55:19;99401.75;;;10.35;100.00
17855;BME280;9053;53.358;6.382;2023-04-01T05:57:49;99406.16;;;10.34;100.00
17855;BME280;9053;53.358;6.382;2023-04-01T06:00:20;99411.38;;;10.33;100.00
17855;BME280;9053;53.358;6.382;2023-04-01T06:02:50;99418.41;;;10.34;100.00
17855;BME280;9053;53.358;6.382;2023-04-01T06:05:24;99417.56;;;10.38;100.00
17855;BME280;9053;53.358;6.382;2023-04-01T06:07:59;99420.19;;;10.36;100.00
17855;BME280;9053;53.358;6.382;2023-04-01T06:10:39;99429.81;;;10.37;100.00
17855;BME280;9053;53.358;6.382;2023-04-01T06:13:16;99430.69;;;10.38;100.00
17855;BME280;9053;53.358;6.382;2023-04-01T06:22:25;99443.84;;;10.38;100.00
17855;BME280;9053;53.358;6.382;2023-04-01T06:25:14;99453.50;;;10.39;100.00
17855;BME280;9053;53.358;6.382;2023-04-01T06:27:59;99451.78;;;10.41;100.00
17855;BME280;9053;53.358;6.382;2023-04-01T06:30:39;99464.06;;;10.45;100.00
17855;BME280;9053;53.358;6.382;2023-04-01T06:33:25;99459.72;;;10.47;100.00
17855;BME280;9053;53.358;6.382;2023-04-01T06:36:23;99463.28;;;10.51;100.00
17855;BME280;9053;53.358;6.382;2023-04-01T06:39:16;99477.31;;;10.53;100.00
17855;BME280;9053;53.358;6.382;2023-04-01T06:45:09;99482.66;;;10.59;100.00
17855;BME280;9053;53.358;6.382;2023-04-01T06:47:56;99485.34;;;10.64;100.00
17855;BME280;9053;53.358;6.382;2023-04-01T06:50:36;99484.53;;;10.69;100.00
17855;BME280;9053;53.358;6.382;2023-04-01T06:53:13;99493.34;;;10.74;100.00
17855;BME280;9053;53.358;6.382;2023-04-01T06:55:47;99490.78;;;10.79;100.00
17855;BME280;9053;53.358;6.382;2023-04-01T06:58:24;99493.50;;;10.87;100.00
17855;BME280;9053;53.358;6.382;2023-04-01T07:00:58;99495.28;;;10.91;100.00
17855;BME280;9053;53.358;6.382;2023-04-01T07:03:32;99496.19;;;10.93;100.00
17855;BME280;9053;53.358;6.382;2023-04-01T07:06:05;99497.94;;;10.92;100.00
17855;BME280;9053;53.358;6.382;2023-04-01T07:08:38;99506.69;;;10.93;100.00
17855;BME280;9053;53.358;6.382;2023-04-01T07:11:22;99512.84;;;10.92;100.00
17855;BME280;9053;53.358;6.382;2023-04-01T07:14:00;99514.56;;;10.90;100.00
17855;BME280;9053;53.358;6.382;2023-04-01T07:16:33;99528.44;;;10.78;100.00
17855;BME280;9053;53.358;6.382;2023-04-01T07:19:12;99523.94;;;10.66;100.00
17855;BME280;9053;53.358;6.382;2023-04-01T07:21:46;99542.28;;;10.63;100.00
17855;BME280;9053;53.358;6.382;2023-04-01T07:24:23;99537.88;;;10.60;100.00
17855;BME280;9053;53.358;6.382;2023-04-01T07:26:56;99547.44;;;10.55;100.00
17855;BME280;9053;53.358;6.382;2023-04-01T07:29:29;99549.25;;;10.59;100.00
17855;BME280;9053;53.358;6.382;2023-04-01T07:32:09;99544.84;;;10.57;100.00
17855;BME280;9053;53.358;6.382;2023-04-01T07:35:03;99551.03;;;10.62;100.00
17855;BME280;9053;53.358;6.382;2023-04-01T07:37:40;99560.66;;;10.60;100.00
17855;BME280;9053;53.358;6.382;2023-04-01T07:40:20;99558.88;;;10.56;100.00
17855;BME280;9053;53.358;6.382;2023-04-01T07:43:14;99570.19;;;10.52;100.00
17855;BME280;9053;53.358;6.382;2023-04-01T07:45:55;99570.19;;;10.52;100.00
17855;BME280;9053;53.358;6.382;2023-04-01T07:48:31;99577.19;;;10.53;100.00
17855;BME280;9053;53.358;6.382;2023-04-01T07:51:08;99585.19;;;10.59;100.00
17855;BME280;9053;53.358;6.382;2023-04-01T07:53:47;99584.31;;;10.58;100.00
17855;BME280;9053;53.358;6.382;2023-04-01T07:56:25;99595.66;;;10.56;100.00
17855;BME280;9053;53.358;6.382;2023-04-01T07:59:03;99589.50;;;10.54;100.00
17855;BME280;9053;53.358;6.382;2023-04-01T08:01:44;99597.44;;;10.58;100.00
17855;BME280;9053;53.358;6.382;2023-04-01T08:04:30;99612.38;;;10.61;100.00
17855;BME280;9053;53.358;6.382;2023-04-01T08:07:09;99606.22;;;10.60;100.00
17855;BME280;9053;53.358;6.382;2023-04-01T08:09:48;99620.19;;;10.58;100.00
17855;BME280;9053;53.358;6.382;2023-04-01T08:12:29;99625.31;;;10.47;100.00
17855;BME280;9053;53.358;6.382;2023-04-01T08:15:11;99641.03;;;10.46;100.00
17855;BME280;9053;53.358;6.382;2023-04-01T08:17:56;99628.75;;;10.43;100.00
17855;BME280;9053;53.358;6.382;2023-04-01T08:20:35;99625.25;;;10.43;100.00
17855;BME280;9053;53.358;6.382;2023-04-01T08:23:13;99634.00;;;10.42;100.00
17855;BME280;9053;53.358;6.382;2023-04-01T08:25:50;99634.03;;;10.45;100.00
17855;BME280;9053;53.358;6.382;2023-04-01T08:28:25;99655.84;;;10.39;100.00
17855;BME280;9053;53.358;6.382;2023-04-01T08:31:01;99647.88;;;10.33;100.00
17855;BME280;9053;53.358;6.382;2023-04-01T08:33:36;99652.97;;;10.25;100.00
17855;BME280;9053;53.358;6.382;2023-04-01T08:36:09;99648.53;;;10.23;100.00
17855;BME280;9053;53.358;6.382;2023-04-01T08:38:43;99664.31;;;10.21;100.00
17855;BME280;9053;53.358;6.382;2023-04-01T08:41:45;99662.63;;;10.26;100.00
17855;BME280;9053;53.358;6.382;2023-04-01T08:44:34;99673.22;;;10.29;100.00
17855;BME280;9053;53.358;6.382;2023-04-01T08:47:24;99683.88;;;10.38;100.00
17855;BME280;9053;53.358;6.382;2023-04-01T08:50:26;99688.34;;;10.46;100.00
17855;BME280;9053;53.358;6.382;2023-04-01T08:53:07;99685.81;;;10.49;100.00
17855;BME280;9053;53.358;6.382;2023-04-01T08:55:51;99712.09;;;10.49;100.00
17855;BME280;9053;53.358;6.382;2023-04-01T08:58:43;99699.75;;;10.45;100.00
17855;BME280;9053;53.358;6.382;2023-04-01T09:01:26;99698.69;;;10.33;100.00
17855;BME280;9053;53.358;6.382;2023-04-01T09:04:25;99719.69;;;10.32;100.00
17855;BME280;9053;53.358;6.382;2023-04-01T09:07:14;99717.88;;;10.29;100.00
17855;BME280;9053;53.358;6.382;2023-04-01T09:13:12;99735.91;;;10.09;100.00
17855;BME280;9053;53.358;6.382;2023-04-01T09:15:58;99725.31;;;10.05;100.00
17855;BME280;9053;53.358;6.382;2023-04-01T09:21:54;99735.03;;;10.10;100.00
17855;BME280;9053;53.358;6.382;2023-04-01T09:24:49;99757.00;;;10.14;100.00
17855;BME280;9053;53.358;6.382;2023-04-01T09:27:29;99757.84;;;10.11;100.00
17855;BME280;9053;53.358;6.382;2023-04-01T09:36:03;99773.47;;;10.05;100.00
17855;BME280;9053;53.358;6.382;2023-04-01T09:38:44;99758.66;;;10.09;100.00
17855;BME280;9053;53.358;6.382;2023-04-01T09:41:28;99773.56;;;10.10;100.00
17855;BME280;9053;53.358;6.382;2023-04-01T09:44:01;99775.34;;;10.12;100.00
17855;BME280;9053;53.358;6.382;2023-04-01T09:46:42;99790.19;;;10.10;100.00
17855;BME280;9053;53.358;6.382;2023-04-01T09:49:39;99800.69;;;10.10;100.00
17855;BME280;9053;53.358;6.382;2023-04-01T09:52:20;99797.06;;;10.02;100.00
17855;BME280;9053;53.358;6.382;2023-04-01T09:55:19;99794.34;;;9.97;100.00
17855;BME280;9053;53.358;6.382;2023-04-01T09:58:26;99816.22;;;9.96;100.00
17855;BME280;9053;53.358;6.382;2023-04-01T10:04:49;99823.75;;;9.80;100.00
17855;BME280;9053;53.358;6.382;2023-04-01T10:10:54;99828.00;;;9.73;100.00
17855;BME280;9053;53.358;6.382;2023-04-01T10:20:21;99849.41;;;9.52;100.00
17855;BME280;9053;53.358;6.382;2023-04-01T10:23:09;99867.75;;;9.50;100.00
17855;BME280;9053;53.358;6.382;2023-04-01T10:26:10;99852.06;;;9.53;100.00
17855;BME280;9053;53.358;6.382;2023-04-01T10:29:00;99864.34;;;9.54;100.00
17855;BME280;9053;53.358;6.382;2023-04-01T10:32:10;99870.34;;;9.49;100.00
17855;BME280;9053;53.358;6.382;2023-04-01T10:35:20;99881.59;;;9.43;100.00
17855;BME280;9053;53.358;6.382;2023-04-01T10:38:20;99871.09;;;9.43;100.00
17855;BME280;9053;53.358;6.382;2023-04-01T10:41:13;99872.03;;;9.45;100.00
17855;BME280;9053;53.358;6.382;2023-04-01T10:47:19;99880.19;;;9.58;100.00
17855;BME280;9053;53.358;6.382;2023-04-01T10:50:10;99874.09;;;9.60;100.00
17855;BME280;9053;53.358;6.382;2023-04-01T10:56:15;99891.63;;;9.61;100.00
17855;BME280;9053;53.358;6.382;2023-04-01T10:59:28;99892.50;;;9.62;100.00
17855;BME280;9053;53.358;6.382;2023-04-01T11:08:39;99911.78;;;9.64;100.00
17855;BME280;9053;53.358;6.382;2023-04-01T11:11:44;99910.88;;;9.62;100.00
17855;BME280;9053;53.358;6.382;2023-04-01T11:23:25;99916.91;;;9.58;100.00
17855;BME280;9053;53.358;6.382;2023-04-01T11:26:08;99934.38;;;9.56;100.00
17855;BME280;9053;53.358;6.382;2023-04-01T11:29:03;99937.91;;;9.58;100.00
17855;BME280;9053;53.358;6.382;2023-04-01T11:31:53;99940.72;;;9.67;100.00
17855;BME280;9053;53.358;6.382;2023-04-01T11:34:39;99945.28;;;9.74;100.00
17855;BME280;9053;53.358;6.382;2023-04-01T11:37:24;99959.34;;;9.76;100.00
17855;BME280;9053;53.358;6.382;2023-04-01T11:40:05;99969.84;;;9.76;100.00
17855;BME280;9053;53.358;6.382;2023-04-01T11:42:47;99955.84;;;9.77;100.00
17855;BME280;9053;53.358;6.382;2023-04-01T11:45:25;99966.34;;;9.77;100.00
17855;BME280;9053;53.358;6.382;2023-04-01T11:48:26;99971.47;;;9.71;100.00
17855;BME280;9053;53.358;6.382;2023-04-01T11:51:20;99974.06;;;9.69;100.00
17855;BME280;9053;53.358;6.382;2023-04-01T11:54:00;99982.91;;;9.74;100.00
17855;BME280;9053;53.358;6.382;2023-04-01T11:56:43;100008.28;;;9.74;100.00
17855;BME280;9053;53.358;6.382;2023-04-01T11:59:42;99987.34;;;9.75;100.00
17855;BME280;9053;53.358;6.382;2023-04-01T12:02:18;99994.47;;;9.81;100.00
17855;BME280;9053;53.358;6.382;2023-04-01T12:05:08;100004.22;;;9.87;100.00
17855;BME280;9053;53.358;6.382;2023-04-01T12:08:04;100007.72;;;9.87;100.00
17855;BME280;9053;53.358;6.382;2023-04-01T12:10:46;100006.00;;;9.88;100.00
17855;BME280;9053;53.358;6.382;2023-04-01T12:13:35;100025.22;;;9.85;100.00
17855;BME280;9053;53.358;6.382;2023-04-01T12:16:19;100022.47;;;9.82;100.00
17855;BME280;9053;53.358;6.382;2023-04-01T12:18:58;100034.69;;;9.80;100.00
17855;BME280;9053;53.358;6.382;2023-04-01T12:21:36;100043.28;;;9.73;100.00
17855;BME280;9053;53.358;6.382;2023-04-01T12:24:41;100065.00;;;9.67;100.00
17855;BME280;9053;53.358;6.382;2023-04-01T12:27:41;100049.13;;;9.61;100.00
17855;BME280;9053;53.358;6.382;2023-04-01T12:30:42;100055.31;;;9.63;100.00
17855;BME280;9053;53.358;6.382;2023-04-01T12:33:35;100071.13;;;9.66;100.00
17855;BME280;9053;53.358;6.382;2023-04-01T12:36:18;100069.31;;;9.64;100.00
17855;BME280;9053;53.358;6.382;2023-04-01T12:39:03;100075.31;;;9.60;100.00
17855;BME280;9053;53.358;6.382;2023-04-01T12:41:41;100077.13;;;9.61;100.00
17855;BME280;9053;53.358;6.382;2023-04-01T12:44:38;100062.28;;;9.63;100.00
17855;BME280;9053;53.358;6.382;2023-04-01T12:50:31;100085.13;;;9.67;100.00
17855;BME280;9053;53.358;6.382;2023-04-01T12:53:18;100103.38;;;9.62;100.00
17855;BME280;9053;53.358;6.382;2023-04-01T12:55:55;100095.25;;;9.51;100.00
17855;BME280;9053;53.358;6.382;2023-04-01T12:59:10;100107.41;;;9.48;100.00
17855;BME280;9053;53.358;6.382;2023-04-01T13:02:01;100103.72;;;9.41;100.00
17855;BME280;9053;53.358;6.382;2023-04-01T13:04:44;100130.69;;;9.36;100.00
17855;BME280;9053;53.358;6.382;2023-04-01T13:07:35;100123.66;;;9.35;100.00
17855;BME280;9053;53.358;6.382;2023-04-01T13:10:18;100124.63;;;9.38;100.00
17855;BME280;9053;53.358;6.382;2023-04-01T13:13:00;100122.91;;;9.39;100.00
17855;BME280;9053;53.358;6.382;2023-04-01T13:15:41;100143.88;;;9.39;100.00
17855;BME280;9053;53.358;6.382;2023-04-01T13:18:21;100142.06;;;9.36;100.00
17855;BME280;9053;53.358;6.382;2023-04-01T13:21:03;100162.09;;;9.32;100.00
17855;BME280;9053;53.358;6.382;2023-04-01T13:23:51;100150.81;;;9.35;100.00
17855;BME280;9053;53.358;6.382;2023-04-01T13:26:28;100149.09;;;9.37;100.00
17855;BME280;9053;53.358;6.382;2023-04-01T13:29:04;100183.97;;;9.33;100.00
17855;BME280;9053;53.358;6.382;2023-04-01T13:31:50;100172.47;;;9.28;100.00
17855;BME280;9053;53.358;6.382;2023-04-01T13:34:45;100169.75;;;9.25;100.00
17855;BME280;9053;53.358;6.382;2023-04-01T13:37:26;100176.69;;;9.23;100.00
17855;BME280;9053;53.358;6.382;2023-04-01T13:40:19;100190.75;;;9.25;100.00
17855;BME280;9053;53.358;6.382;2023-04-01T13:42:54;100191.63;;;9.25;100.00
17855;BME280;9053;53.358;6.382;2023-04-01T13:45:37;100205.63;;;9.26;100.00
17855;BME280;9053;53.358;6.382;2023-04-01T13:48:29;100198.41;;;9.17;100.00
17855;BME280;9053;53.358;6.382;2023-04-01T13:51:21;100211.47;;;9.16;100.00
17855;BME280;9053;53.358;6.382;2023-04-01T13:54:23;100206.22;;;9.16;100.00
17855;BME280;9053;53.358;6.382;2023-04-01T13:57:07;100212.88;;;9.04;100.00
17855;BME280;9053;53.358;6.382;2023-04-01T13:59:56;100227.78;;;9.05;100.00
17855;BME280;9053;53.358;6.382;2023-04-01T14:02:47;100216.25;;;9.00;100.00
17855;BME280;9053;53.358;6.382;2023-04-01T14:05:41;100249.47;;;9.00;100.00
17855;BME280;9053;53.358;6.382;2023-04-01T14:08:29;100224.06;;;8.99;100.00
17855;BME280;9053;53.358;6.382;2023-04-01T14:11:13;100238.91;;;8.98;100.00
17855;BME280;9053;53.358;6.382;2023-04-01T14:13:55;100260.94;;;9.03;100.00
17855;BME280;9053;53.358;6.382;2023-04-01T14:16:40;100253.91;;;9.02;100.00
17855;BME280;9053;53.358;6.382;2023-04-01T14:19:25;100267.94;;;9.04;100.00
17855;BME280;9053;53.358;6.382;2023-04-01T14:22:04;100268.72;;;9.00;100.00
17855;BME280;9053;53.358;6.382;2023-04-01T14:24:57;100261.66;;;8.99;100.00
17855;BME280;9053;53.358;6.382;2023-04-01T14:27:50;100272.88;;;8.94;100.00
17855;BME280;9053;53.358;6.382;2023-04-01T14:30:38;100278.91;;;8.91;100.00
17855;BME280;9053;53.358;6.382;2023-04-01T14:33:21;100295.28;;;8.84;100.00
17855;BME280;9053;53.358;6.382;2023-04-01T14:36:06;100289.88;;;8.79;100.00
17855;BME280;9053;53.358;6.382;2023-04-01T14:38:48;100312.59;;;8.79;100.00
17855;BME280;9053;53.358;6.382;2023-04-01T14:41:37;100319.47;;;8.75;100.00
17855;BME280;9053;53.358;6.382;2023-04-01T14:47:25;100321.63;;;8.61;100.00
17855;BME280;9053;53.358;6.382;2023-04-01T14:50:04;100326.63;;;8.54;100.00
17855;BME280;9053;53.358;6.382;2023-04-01T14:52:38;100330.81;;;8.49;100.00
17855;BME280;9053;53.358;6.382;2023-04-01T14:55:29;100342.09;;;8.46;100.00
17855;BME280;9053;53.358;6.382;2023-04-01T14:58:12;100346.16;;;8.38;100.00
17855;BME280;9053;53.358;6.382;2023-04-01T15:00:55;100353.03;;;8.34;100.00
17855;BME280;9053;53.358;6.382;2023-04-01T15:03:30;100357.94;;;8.25;100.00
17855;BME280;9053;53.358;6.382;2023-04-01T15:06:27;100370.75;;;8.17;100.00
17855;BME280;9053;53.358;6.382;2023-04-01T15:09:06;100386.38;;;8.14;100.00
17855;BME280;9053;53.358;6.382;2023-04-01T15:11:52;100366.19;;;8.12;100.00
17855;BME280;9053;53.358;6.382;2023-04-01T15:17:39;100396.59;;;8.08;100.00